Ermita Pilar — EA3320 — position and weather

sailwx.info

Track history (hours):
 
Tides and Currents Weather Stations Pressure Air Temp Water Temp Dewpoint Dewpoint Depression Visibility Wind Speed Wind Dir Waves Ship Positions

Ermita Pilar

Last reported at 2017-Dec-07 02:29 UTC. Time now 2018-Feb-25 23:58 UTC.
Position N 43°26' W 003°28'.
Warning: this ship's position is months out of date.

Length 30 m.

Type: Fishing. MMSI: 224028250.

Date/timePositionNaut miles runAvg speedWind from/ knotsBaromVisibWave heightAir tempDewpointWater temp
2017-Dec-07 02:29N 43°26' W 003°28'3 5.2
2017-Dec-07 02:00N 43°29' W 003°27'  
2017-Nov-30 08:29N 43°26' W 003°28'4 9.4
2017-Nov-30 08:00N 43°27' W 003°22'0 0.7
2017-Nov-30 07:31N 43°27' W 003°21'0 0.1
2017-Nov-30 07:00N 43°27' W 003°21'1 2.5
2017-Nov-30 06:31N 43°28' W 003°23'3 6.0
2017-Nov-30 06:01N 43°27' W 003°19'5 9.3
2017-Nov-30 05:30N 43°29' W 003°13'5 9.3
2017-Nov-30 05:01N 43°30' W 003°07'5 9.5
2017-Nov-30 04:31N 43°32' W 003°00'62 9.7
2017-Nov-29 22:10N 43°49' W 001°39'2 9.6
2017-Nov-29 22:00N 43°49' W 001°37'2 1.4
2017-Nov-29 20:32N 43°50' W 001°34'1 5.4
2017-Nov-29 20:19N 43°50' W 001°35'2 5.3
2017-Nov-29 20:00N 43°51' W 001°34'2 3.2
2017-Nov-29 19:28N 43°53' W 001°35'0 0.1
2017-Nov-29 19:00N 43°53' W 001°35'1 1.6
2017-Nov-29 18:27N 43°53' W 001°36'6 6.8
2017-Nov-29 17:31N 43°50' W 001°44'010.3
2017-Nov-29 17:30N 43°50' W 001°44'510.1
2017-Nov-29 17:01N 43°45' W 001°44'5 9.9
2017-Nov-29 16:30N 43°41' W 001°47'5 9.5
2017-Nov-29 16:00N 43°36' W 001°49'5 9.5
2017-Nov-29 15:30N 43°32' W 001°51'6 9.5
2017-Nov-29 14:52N 43°26' W 001°53'410.0
2017-Nov-29 14:30N 43°22' W 001°55'2 0.1
2017-Nov-28 18:02N 43°20' W 001°56'0 9.7
2017-Nov-28 18:00N 43°20' W 001°56'810.0
2017-Nov-28 17:10N 43°29' W 001°53'1 9.4
2017-Nov-28 17:00N 43°30' W 001°53'4 9.0
2017-Nov-28 16:30N 43°34' W 001°51'4 7.3
2017-Nov-28 15:56N 43°38' W 001°48'8 8.8
2017-Nov-28 15:00N 43°30' W 001°52'5 9.2
2017-Nov-28 14:26N 43°25' W 001°54'5 9.2
2017-Nov-28 13:53N 43°20' W 001°56'1 0.1
2017-Nov-28 09:34N 43°21' W 001°56'1 9.7
2017-Nov-28 09:30N 43°21' W 001°55'6 9.5
2017-Nov-28 08:55N 43°27' W 001°53'4 9.4
2017-Nov-28 08:30N 43°30' W 001°51'5 9.3
2017-Nov-28 08:00N 43°34' W 001°48'5 9.4
2017-Nov-28 07:31N 43°38' W 001°44'5 9.4
2017-Nov-28 07:00N 43°43' W 001°41'8 0.9
2017-Nov-27 22:20N 43°50' W 001°43'2 5.3
2017-Nov-27 22:00N 43°50' W 001°45'1 1.6
2017-Nov-27 21:30N 43°50' W 001°46'0 0.1
2017-Nov-27 20:51N 43°50' W 001°46'1 3.7
2017-Nov-27 20:29N 43°50' W 001°44'1 2.3
2017-Nov-27 19:58N 43°51' W 001°43'0 0.3
2017-Nov-27 19:28N 43°51' W 001°43'5 3.7
2017-Nov-27 18:13N 43°46' W 001°43'0 0.6
2017-Nov-27 17:55N 43°46' W 001°43'0 0.6
2017-Nov-27 17:27N 43°46' W 001°43'3 5.9
2017-Nov-27 17:00N 43°44' W 001°46'510.1
2017-Nov-27 16:30N 43°42' W 001°52'510.4
2017-Nov-27 16:00N 43°40' W 001°58'510.3
2017-Nov-27 15:31N 43°39' W 002°05'510.4
2017-Nov-27 15:00N 43°38' W 002°12'510.4
2017-Nov-27 14:31N 43°37' W 002°19'510.4
2017-Nov-27 14:00N 43°36' W 002°26'510.3
2017-Nov-27 13:31N 43°34' W 002°33'510.4
2017-Nov-27 13:00N 43°33' W 002°40'510.5
2017-Nov-27 12:30N 43°32' W 002°47'610.6
2017-Nov-27 11:57N 43°31' W 002°55'510.7
2017-Nov-27 11:30N 43°30' W 003°02'510.7
2017-Nov-27 11:00N 43°29' W 003°09'510.4
2017-Nov-27 10:30N 43°27' W 003°16'3 5.8
2017-Nov-27 10:00N 43°27' W 003°20'0 0.5
2017-Nov-27 09:30N 43°27' W 003°19'0 0.2
2017-Nov-27 09:01N 43°27' W 003°20'2 3.4
2017-Nov-27 08:31N 43°26' W 003°22'4 8.6
2017-Nov-27 08:00N 43°26' W 003°28'  
Track history (hours):
 
Tides and Currents Weather Stations Pressure Air Temp Water Temp Dewpoint Dewpoint Depression Visibility Wind Speed Wind Dir Waves Ship Positions

Ermita Pilar

Last reported at 2017-Dec-07 02:29 UTC. Time now 2018-Feb-25 23:58 UTC.
Position N 43°26' W 003°28'.
Warning: this ship's position is months out of date.

Length 30 m.

Type: Fishing. MMSI: 224028250.

Date/timePositionNaut miles runAvg speedWind from/ knotsBaromVisibWave heightAir tempDewpointWater temp
2017-Dec-07 02:29N 43°26' W 003°28'3 5.2
2017-Dec-07 02:00N 43°29' W 003°27'  
2017-Nov-30 08:29N 43°26' W 003°28'4 9.4
2017-Nov-30 08:00N 43°27' W 003°22'0 0.7
2017-Nov-30 07:31N 43°27' W 003°21'0 0.1
2017-Nov-30 07:00N 43°27' W 003°21'1 2.5
2017-Nov-30 06:31N 43°28' W 003°23'3 6.0
2017-Nov-30 06:01N 43°27' W 003°19'5 9.3
2017-Nov-30 05:30N 43°29' W 003°13'5 9.3
2017-Nov-30 05:01N 43°30' W 003°07'5 9.5
2017-Nov-30 04:31N 43°32' W 003°00'62 9.7
2017-Nov-29 22:10N 43°49' W 001°39'2 9.6
2017-Nov-29 22:00N 43°49' W 001°37'2 1.4
2017-Nov-29 20:32N 43°50' W 001°34'1 5.4
2017-Nov-29 20:19N 43°50' W 001°35'2 5.3
2017-Nov-29 20:00N 43°51' W 001°34'2 3.2
2017-Nov-29 19:28N 43°53' W 001°35'0 0.1
2017-Nov-29 19:00N 43°53' W 001°35'1 1.6
2017-Nov-29 18:27N 43°53' W 001°36'6 6.8
2017-Nov-29 17:31N 43°50' W 001°44'010.3
2017-Nov-29 17:30N 43°50' W 001°44'510.1
2017-Nov-29 17:01N 43°45' W 001°44'5 9.9
2017-Nov-29 16:30N 43°41' W 001°47'5 9.5
2017-Nov-29 16:00N 43°36' W 001°49'5 9.5
2017-Nov-29 15:30N 43°32' W 001°51'6 9.5
2017-Nov-29 14:52N 43°26' W 001°53'410.0
2017-Nov-29 14:30N 43°22' W 001°55'2 0.1
2017-Nov-28 18:02N 43°20' W 001°56'0 9.7
2017-Nov-28 18:00N 43°20' W 001°56'810.0
2017-Nov-28 17:10N 43°29' W 001°53'1 9.4
2017-Nov-28 17:00N 43°30' W 001°53'4 9.0
2017-Nov-28 16:30N 43°34' W 001°51'4 7.3
2017-Nov-28 15:56N 43°38' W 001°48'8 8.8
2017-Nov-28 15:00N 43°30' W 001°52'5 9.2
2017-Nov-28 14:26N 43°25' W 001°54'5 9.2
2017-Nov-28 13:53N 43°20' W 001°56'1 0.1
2017-Nov-28 09:34N 43°21' W 001°56'1 9.7
2017-Nov-28 09:30N 43°21' W 001°55'6 9.5
2017-Nov-28 08:55N 43°27' W 001°53'4 9.4
2017-Nov-28 08:30N 43°30' W 001°51'5 9.3
2017-Nov-28 08:00N 43°34' W 001°48'5 9.4
2017-Nov-28 07:31N 43°38' W 001°44'5 9.4
2017-Nov-28 07:00N 43°43' W 001°41'8 0.9
2017-Nov-27 22:20N 43°50' W 001°43'2 5.3
2017-Nov-27 22:00N 43°50' W 001°45'1 1.6
2017-Nov-27 21:30N 43°50' W 001°46'0 0.1
2017-Nov-27 20:51N 43°50' W 001°46'1 3.7
2017-Nov-27 20:29N 43°50' W 001°44'1 2.3
2017-Nov-27 19:58N 43°51' W 001°43'0 0.3
2017-Nov-27 19:28N 43°51' W 001°43'5 3.7
2017-Nov-27 18:13N 43°46' W 001°43'0 0.6
2017-Nov-27 17:55N 43°46' W 001°43'0 0.6
2017-Nov-27 17:27N 43°46' W 001°43'3 5.9
2017-Nov-27 17:00N 43°44' W 001°46'510.1
2017-Nov-27 16:30N 43°42' W 001°52'510.4
2017-Nov-27 16:00N 43°40' W 001°58'510.3
2017-Nov-27 15:31N 43°39' W 002°05'510.4
2017-Nov-27 15:00N 43°38' W 002°12'510.4
2017-Nov-27 14:31N 43°37' W 002°19'510.4
2017-Nov-27 14:00N 43°36' W 002°26'510.3
2017-Nov-27 13:31N 43°34' W 002°33'510.4
2017-Nov-27 13:00N 43°33' W 002°40'510.5
2017-Nov-27 12:30N 43°32' W 002°47'610.6
2017-Nov-27 11:57N 43°31' W 002°55'510.7
2017-Nov-27 11:30N 43°30' W 003°02'510.7
2017-Nov-27 11:00N 43°29' W 003°09'510.4
2017-Nov-27 10:30N 43°27' W 003°16'3 5.8
2017-Nov-27 10:00N 43°27' W 003°20'0 0.5
2017-Nov-27 09:30N 43°27' W 003°19'0 0.2
2017-Nov-27 09:01N 43°27' W 003°20'2 3.4
2017-Nov-27 08:31N 43°26' W 003°22'4 8.6
2017-Nov-27 08:00N 43°26' W 003°28'  

Dump ship's entire track history